sensor_id;sensor_type;location;lat;lon;timestamp;P1;durP1;ratioP1;P2;durP2;ratioP2
52708;SDS011;38606;52.986;6.980;2022-12-18T00:01:44;132.73;;;40.53;;
52708;SDS011;38606;52.986;6.980;2022-12-18T00:04:23;130.43;;;37.72;;
52708;SDS011;38606;52.986;6.980;2022-12-18T00:06:50;134.70;;;38.97;;
52708;SDS011;38606;52.986;6.980;2022-12-18T00:09:16;131.60;;;38.05;;
52708;SDS011;38606;52.986;6.980;2022-12-18T00:11:42;132.93;;;40.30;;
52708;SDS011;38606;52.986;6.980;2022-12-18T00:14:08;140.30;;;40.15;;
52708;SDS011;38606;52.986;6.980;2022-12-18T00:16:36;137.68;;;38.22;;
52708;SDS011;38606;52.986;6.980;2022-12-18T00:19:02;134.23;;;38.85;;
52708;SDS011;38606;52.986;6.980;2022-12-18T00:21:29;131.15;;;38.00;;
52708;SDS011;38606;52.986;6.980;2022-12-18T00:23:56;128.82;;;38.10;;
52708;SDS011;38606;52.986;6.980;2022-12-18T00:26:23;133.23;;;38.78;;
52708;SDS011;38606;52.986;6.980;2022-12-18T00:28:52;129.55;;;37.30;;
52708;SDS011;38606;52.986;6.980;2022-12-18T00:31:19;128.77;;;37.28;;
52708;SDS011;38606;52.986;6.980;2022-12-18T00:33:47;144.05;;;37.92;;
52708;SDS011;38606;52.986;6.980;2022-12-18T00:36:18;127.78;;;37.50;;
52708;SDS011;38606;52.986;6.980;2022-12-18T00:38:46;140.85;;;40.03;;
52708;SDS011;38606;52.986;6.980;2022-12-18T00:41:13;130.82;;;37.75;;
52708;SDS011;38606;52.986;6.980;2022-12-18T00:44:03;124.22;;;37.08;;
52708;SDS011;38606;52.986;6.980;2022-12-18T00:46:30;128.98;;;35.90;;
52708;SDS011;38606;52.986;6.980;2022-12-18T00:48:56;120.63;;;37.20;;
52708;SDS011;38606;52.986;6.980;2022-12-18T00:51:22;120.90;;;36.35;;
52708;SDS011;38606;52.986;6.980;2022-12-18T00:53:48;128.13;;;38.53;;
52708;SDS011;38606;52.986;6.980;2022-12-18T00:56:14;128.68;;;37.70;;
52708;SDS011;38606;52.986;6.980;2022-12-18T00:58:40;123.03;;;38.03;;
52708;SDS011;38606;52.986;6.980;2022-12-18T01:01:06;132.57;;;39.20;;
52708;SDS011;38606;52.986;6.980;2022-12-18T01:03:32;128.73;;;37.42;;
52708;SDS011;38606;52.986;6.980;2022-12-18T01:05:58;119.70;;;36.67;;
52708;SDS011;38606;52.986;6.980;2022-12-18T01:08:24;118.72;;;37.67;;
52708;SDS011;38606;52.986;6.980;2022-12-18T01:10:50;129.07;;;38.00;;
52708;SDS011;38606;52.986;6.980;2022-12-18T01:13:16;116.85;;;35.53;;
52708;SDS011;38606;52.986;6.980;2022-12-18T01:15:49;121.07;;;37.20;;
52708;SDS011;38606;52.986;6.980;2022-12-18T01:18:15;115.68;;;35.17;;
52708;SDS011;38606;52.986;6.980;2022-12-18T01:20:41;109.57;;;34.80;;
52708;SDS011;38606;52.986;6.980;2022-12-18T01:23:08;109.07;;;34.45;;
52708;SDS011;38606;52.986;6.980;2022-12-18T01:25:35;108.25;;;34.67;;
52708;SDS011;38606;52.986;6.980;2022-12-18T01:28:01;113.35;;;34.22;;
52708;SDS011;38606;52.986;6.980;2022-12-18T01:30:27;103.90;;;34.10;;
52708;SDS011;38606;52.986;6.980;2022-12-18T01:32:54;114.07;;;35.63;;
52708;SDS011;38606;52.986;6.980;2022-12-18T01:35:20;97.13;;;34.78;;
52708;SDS011;38606;52.986;6.980;2022-12-18T01:37:46;105.47;;;35.05;;
52708;SDS011;38606;52.986;6.980;2022-12-18T01:40:12;110.72;;;35.83;;
52708;SDS011;38606;52.986;6.980;2022-12-18T01:42:38;109.35;;;36.88;;
52708;SDS011;38606;52.986;6.980;2022-12-18T01:45:05;102.35;;;35.58;;
52708;SDS011;38606;52.986;6.980;2022-12-18T01:52:56;111.35;;;35.42;;
52708;SDS011;38606;52.986;6.980;2022-12-18T01:55:28;110.53;;;35.42;;
52708;SDS011;38606;52.986;6.980;2022-12-18T01:57:56;114.68;;;35.72;;
52708;SDS011;38606;52.986;6.980;2022-12-18T02:00:24;118.78;;;35.63;;
52708;SDS011;38606;52.986;6.980;2022-12-18T02:02:51;110.68;;;35.13;;
52708;SDS011;38606;52.986;6.980;2022-12-18T02:05:18;118.32;;;36.67;;
52708;SDS011;38606;52.986;6.980;2022-12-18T02:08:08;116.78;;;36.72;;
52708;SDS011;38606;52.986;6.980;2022-12-18T02:16:19;143.65;;;40.33;;
52708;SDS011;38606;52.986;6.980;2022-12-18T02:18:56;163.93;;;41.58;;
52708;SDS011;38606;52.986;6.980;2022-12-18T02:21:44;131.50;;;39.65;;
52708;SDS011;38606;52.986;6.980;2022-12-18T02:27:06;123.47;;;36.85;;
52708;SDS011;38606;52.986;6.980;2022-12-18T02:29:39;122.50;;;35.33;;
52708;SDS011;38606;52.986;6.980;2022-12-18T02:32:13;119.72;;;37.33;;
52708;SDS011;38606;52.986;6.980;2022-12-18T02:34:42;114.30;;;34.72;;
52708;SDS011;38606;52.986;6.980;2022-12-18T02:37:10;110.65;;;34.60;;
52708;SDS011;38606;52.986;6.980;2022-12-18T02:39:39;104.93;;;33.75;;
52708;SDS011;38606;52.986;6.980;2022-12-18T02:42:07;94.88;;;32.00;;
52708;SDS011;38606;52.986;6.980;2022-12-18T02:44:46;93.95;;;33.97;;
52708;SDS011;38606;52.986;6.980;2022-12-18T02:47:14;83.85;;;28.80;;
52708;SDS011;38606;52.986;6.980;2022-12-18T02:50:02;89.72;;;29.27;;
52708;SDS011;38606;52.986;6.980;2022-12-18T03:01:50;75.57;;;26.83;;
52708;SDS011;38606;52.986;6.980;2022-12-18T03:04:18;77.75;;;26.77;;
52708;SDS011;38606;52.986;6.980;2022-12-18T03:06:49;69.82;;;25.75;;
52708;SDS011;38606;52.986;6.980;2022-12-18T03:09:20;62.03;;;24.50;;
52708;SDS011;38606;52.986;6.980;2022-12-18T03:11:54;63.05;;;23.92;;
52708;SDS011;38606;52.986;6.980;2022-12-18T03:14:42;68.25;;;24.55;;
52708;SDS011;38606;52.986;6.980;2022-12-18T03:17:10;68.30;;;24.70;;
52708;SDS011;38606;52.986;6.980;2022-12-18T03:19:39;62.78;;;23.25;;
52708;SDS011;38606;52.986;6.980;2022-12-18T03:22:07;69.18;;;24.13;;
52708;SDS011;38606;52.986;6.980;2022-12-18T03:24:34;70.40;;;25.20;;
52708;SDS011;38606;52.986;6.980;2022-12-18T03:27:05;67.55;;;24.52;;
52708;SDS011;38606;52.986;6.980;2022-12-18T03:29:40;68.43;;;24.83;;
52708;SDS011;38606;52.986;6.980;2022-12-18T03:32:12;69.47;;;25.10;;
52708;SDS011;38606;52.986;6.980;2022-12-18T03:34:42;60.75;;;23.52;;
52708;SDS011;38606;52.986;6.980;2022-12-18T03:37:11;74.15;;;25.65;;
52708;SDS011;38606;52.986;6.980;2022-12-18T03:39:37;74.50;;;24.63;;
52708;SDS011;38606;52.986;6.980;2022-12-18T03:42:07;66.03;;;24.17;;
52708;SDS011;38606;52.986;6.980;2022-12-18T03:44:57;79.53;;;26.77;;
52708;SDS011;38606;52.986;6.980;2022-12-18T03:52:19;72.72;;;25.08;;
52708;SDS011;38606;52.986;6.980;2022-12-18T03:54:49;78.25;;;26.20;;
52708;SDS011;38606;52.986;6.980;2022-12-18T03:57:18;71.85;;;26.20;;
52708;SDS011;38606;52.986;6.980;2022-12-18T03:59:45;76.35;;;24.90;;
52708;SDS011;38606;52.986;6.980;2022-12-18T04:02:15;70.22;;;24.67;;
52708;SDS011;38606;52.986;6.980;2022-12-18T04:04:42;65.40;;;24.95;;
52708;SDS011;38606;52.986;6.980;2022-12-18T04:07:09;67.30;;;24.38;;
52708;SDS011;38606;52.986;6.980;2022-12-18T04:09:36;66.53;;;22.90;;
52708;SDS011;38606;52.986;6.980;2022-12-18T04:12:04;63.45;;;23.85;;
52708;SDS011;38606;52.986;6.980;2022-12-18T04:14:31;65.38;;;22.48;;
52708;SDS011;38606;52.986;6.980;2022-12-18T04:17:00;64.78;;;23.83;;
52708;SDS011;38606;52.986;6.980;2022-12-18T04:19:27;64.78;;;23.48;;
52708;SDS011;38606;52.986;6.980;2022-12-18T04:21:53;64.53;;;23.70;;
52708;SDS011;38606;52.986;6.980;2022-12-18T04:24:20;67.63;;;24.88;;
52708;SDS011;38606;52.986;6.980;2022-12-18T04:26:46;64.65;;;23.50;;
52708;SDS011;38606;52.986;6.980;2022-12-18T04:29:12;62.70;;;22.55;;
52708;SDS011;38606;52.986;6.980;2022-12-18T04:31:38;59.25;;;21.50;;
52708;SDS011;38606;52.986;6.980;2022-12-18T04:34:04;56.67;;;22.05;;
52708;SDS011;38606;52.986;6.980;2022-12-18T04:36:30;61.78;;;22.67;;
52708;SDS011;38606;52.986;6.980;2022-12-18T04:38:56;53.60;;;20.98;;
52708;SDS011;38606;52.986;6.980;2022-12-18T04:41:22;56.53;;;21.85;;
52708;SDS011;38606;52.986;6.980;2022-12-18T04:43:48;59.40;;;22.92;;
52708;SDS011;38606;52.986;6.980;2022-12-18T04:46:14;54.55;;;20.58;;
52708;SDS011;38606;52.986;6.980;2022-12-18T04:48:40;56.85;;;22.42;;
52708;SDS011;38606;52.986;6.980;2022-12-18T04:51:06;60.92;;;22.70;;
52708;SDS011;38606;52.986;6.980;2022-12-18T04:53:32;53.70;;;21.27;;
52708;SDS011;38606;52.986;6.980;2022-12-18T04:56:02;59.92;;;21.58;;
52708;SDS011;38606;52.986;6.980;2022-12-18T04:58:33;53.00;;;21.38;;
52708;SDS011;38606;52.986;6.980;2022-12-18T05:00:59;48.63;;;19.52;;
52708;SDS011;38606;52.986;6.980;2022-12-18T05:03:25;56.00;;;20.98;;
52708;SDS011;38606;52.986;6.980;2022-12-18T05:05:52;52.47;;;20.38;;
52708;SDS011;38606;52.986;6.980;2022-12-18T05:08:18;55.35;;;20.95;;
52708;SDS011;38606;52.986;6.980;2022-12-18T05:10:44;48.25;;;20.70;;
52708;SDS011;38606;52.986;6.980;2022-12-18T05:13:10;49.42;;;20.92;;
52708;SDS011;38606;52.986;6.980;2022-12-18T05:15:35;52.75;;;20.85;;
52708;SDS011;38606;52.986;6.980;2022-12-18T05:18:02;54.13;;;21.52;;
52708;SDS011;38606;52.986;6.980;2022-12-18T05:20:28;50.33;;;19.98;;
52708;SDS011;38606;52.986;6.980;2022-12-18T05:22:54;47.05;;;19.98;;
52708;SDS011;38606;52.986;6.980;2022-12-18T05:25:21;52.33;;;20.67;;
52708;SDS011;38606;52.986;6.980;2022-12-18T05:27:47;49.97;;;20.20;;
52708;SDS011;38606;52.986;6.980;2022-12-18T05:30:13;49.20;;;20.05;;
52708;SDS011;38606;52.986;6.980;2022-12-18T05:32:40;47.20;;;20.35;;
52708;SDS011;38606;52.986;6.980;2022-12-18T05:35:07;52.90;;;20.08;;
52708;SDS011;38606;52.986;6.980;2022-12-18T05:37:33;49.92;;;18.90;;
52708;SDS011;38606;52.986;6.980;2022-12-18T05:39:59;45.72;;;19.75;;
52708;SDS011;38606;52.986;6.980;2022-12-18T05:42:25;49.38;;;19.05;;
52708;SDS011;38606;52.986;6.980;2022-12-18T05:44:51;48.58;;;19.27;;
52708;SDS011;38606;52.986;6.980;2022-12-18T05:47:17;46.72;;;19.70;;
52708;SDS011;38606;52.986;6.980;2022-12-18T05:49:43;47.00;;;19.88;;
52708;SDS011;38606;52.986;6.980;2022-12-18T05:52:09;44.47;;;19.35;;
52708;SDS011;38606;52.986;6.980;2022-12-18T05:54:35;50.03;;;20.30;;
52708;SDS011;38606;52.986;6.980;2022-12-18T05:57:01;53.30;;;22.05;;
52708;SDS011;38606;52.986;6.980;2022-12-18T05:59:27;51.22;;;21.08;;
52708;SDS011;38606;52.986;6.980;2022-12-18T06:01:53;47.42;;;19.05;;
52708;SDS011;38606;52.986;6.980;2022-12-18T06:04:19;47.40;;;20.73;;
52708;SDS011;38606;52.986;6.980;2022-12-18T06:06:45;45.38;;;19.73;;
52708;SDS011;38606;52.986;6.980;2022-12-18T06:09:11;46.58;;;18.98;;
52708;SDS011;38606;52.986;6.980;2022-12-18T06:11:38;40.60;;;18.00;;
52708;SDS011;38606;52.986;6.980;2022-12-18T06:14:05;39.33;;;18.17;;
52708;SDS011;38606;52.986;6.980;2022-12-18T06:16:31;42.72;;;18.05;;
52708;SDS011;38606;52.986;6.980;2022-12-18T06:18:58;41.95;;;18.95;;
52708;SDS011;38606;52.986;6.980;2022-12-18T06:21:25;45.17;;;19.73;;
52708;SDS011;38606;52.986;6.980;2022-12-18T06:23:51;44.13;;;19.27;;
52708;SDS011;38606;52.986;6.980;2022-12-18T06:26:17;41.80;;;18.52;;
52708;SDS011;38606;52.986;6.980;2022-12-18T06:28:44;45.80;;;17.92;;
52708;SDS011;38606;52.986;6.980;2022-12-18T06:31:10;37.58;;;16.92;;
52708;SDS011;38606;52.986;6.980;2022-12-18T06:33:36;42.42;;;19.30;;
52708;SDS011;38606;52.986;6.980;2022-12-18T06:36:03;39.92;;;17.65;;
52708;SDS011;38606;52.986;6.980;2022-12-18T06:38:32;41.20;;;17.27;;
52708;SDS011;38606;52.986;6.980;2022-12-18T06:40:58;44.70;;;18.38;;
52708;SDS011;38606;52.986;6.980;2022-12-18T06:43:24;45.03;;;18.58;;
52708;SDS011;38606;52.986;6.980;2022-12-18T06:45:50;38.08;;;16.95;;
52708;SDS011;38606;52.986;6.980;2022-12-18T06:48:18;49.67;;;19.25;;
52708;SDS011;38606;52.986;6.980;2022-12-18T06:50:45;39.08;;;17.60;;
52708;SDS011;38606;52.986;6.980;2022-12-18T06:53:11;43.17;;;18.02;;
52708;SDS011;38606;52.986;6.980;2022-12-18T06:55:37;43.67;;;18.00;;
52708;SDS011;38606;52.986;6.980;2022-12-18T06:58:03;45.15;;;18.63;;
52708;SDS011;38606;52.986;6.980;2022-12-18T07:00:29;39.67;;;17.73;;
52708;SDS011;38606;52.986;6.980;2022-12-18T07:02:55;40.22;;;17.27;;
52708;SDS011;38606;52.986;6.980;2022-12-18T07:05:21;38.92;;;17.40;;
52708;SDS011;38606;52.986;6.980;2022-12-18T07:07:47;42.17;;;17.98;;
52708;SDS011;38606;52.986;6.980;2022-12-18T07:10:13;47.55;;;18.30;;
52708;SDS011;38606;52.986;6.980;2022-12-18T07:12:39;41.03;;;19.27;;
52708;SDS011;38606;52.986;6.980;2022-12-18T07:15:06;39.47;;;17.48;;
52708;SDS011;38606;52.986;6.980;2022-12-18T07:17:32;41.70;;;17.83;;
52708;SDS011;38606;52.986;6.980;2022-12-18T07:19:58;45.75;;;18.65;;
52708;SDS011;38606;52.986;6.980;2022-12-18T07:22:24;46.47;;;17.60;;
52708;SDS011;38606;52.986;6.980;2022-12-18T07:24:51;42.25;;;17.70;;
52708;SDS011;38606;52.986;6.980;2022-12-18T07:27:16;37.13;;;17.13;;
52708;SDS011;38606;52.986;6.980;2022-12-18T07:29:42;40.20;;;17.42;;
52708;SDS011;38606;52.986;6.980;2022-12-18T07:32:08;38.50;;;15.95;;
52708;SDS011;38606;52.986;6.980;2022-12-18T07:34:34;34.53;;;15.55;;
52708;SDS011;38606;52.986;6.980;2022-12-18T07:37:00;36.05;;;15.60;;
52708;SDS011;38606;52.986;6.980;2022-12-18T07:39:26;36.50;;;15.27;;
52708;SDS011;38606;52.986;6.980;2022-12-18T07:41:52;31.50;;;14.80;;
52708;SDS011;38606;52.986;6.980;2022-12-18T07:44:37;33.95;;;15.35;;
52708;SDS011;38606;52.986;6.980;2022-12-18T07:47:04;32.28;;;14.45;;
52708;SDS011;38606;52.986;6.980;2022-12-18T07:49:30;38.97;;;15.45;;
52708;SDS011;38606;52.986;6.980;2022-12-18T07:51:56;37.67;;;15.18;;
52708;SDS011;38606;52.986;6.980;2022-12-18T07:54:23;32.15;;;14.75;;
52708;SDS011;38606;52.986;6.980;2022-12-18T07:56:49;35.17;;;14.18;;
52708;SDS011;38606;52.986;6.980;2022-12-18T07:59:15;31.38;;;14.57;;
52708;SDS011;38606;52.986;6.980;2022-12-18T08:01:41;36.40;;;14.55;;
52708;SDS011;38606;52.986;6.980;2022-12-18T08:04:07;29.33;;;13.93;;
52708;SDS011;38606;52.986;6.980;2022-12-18T08:06:33;31.30;;;13.50;;
52708;SDS011;38606;52.986;6.980;2022-12-18T08:08:59;30.58;;;14.32;;
52708;SDS011;38606;52.986;6.980;2022-12-18T08:11:26;31.08;;;13.23;;
52708;SDS011;38606;52.986;6.980;2022-12-18T08:13:53;32.08;;;13.70;;
52708;SDS011;38606;52.986;6.980;2022-12-18T08:16:19;29.38;;;13.80;;
52708;SDS011;38606;52.986;6.980;2022-12-18T08:18:46;34.90;;;14.48;;
52708;SDS011;38606;52.986;6.980;2022-12-18T08:21:13;31.10;;;14.20;;
52708;SDS011;38606;52.986;6.980;2022-12-18T08:23:40;31.15;;;13.80;;
52708;SDS011;38606;52.986;6.980;2022-12-18T08:26:07;30.10;;;13.68;;
52708;SDS011;38606;52.986;6.980;2022-12-18T08:28:33;29.15;;;12.85;;
52708;SDS011;38606;52.986;6.980;2022-12-18T08:30:59;29.95;;;13.82;;
52708;SDS011;38606;52.986;6.980;2022-12-18T08:33:25;32.70;;;13.80;;
52708;SDS011;38606;52.986;6.980;2022-12-18T08:35:51;31.55;;;14.20;;
52708;SDS011;38606;52.986;6.980;2022-12-18T08:38:18;25.52;;;12.82;;
52708;SDS011;38606;52.986;6.980;2022-12-18T08:40:44;31.38;;;13.57;;
52708;SDS011;38606;52.986;6.980;2022-12-18T08:43:10;29.92;;;12.85;;
52708;SDS011;38606;52.986;6.980;2022-12-18T08:45:55;27.45;;;12.18;;
52708;SDS011;38606;52.986;6.980;2022-12-18T08:48:21;26.60;;;12.23;;
52708;SDS011;38606;52.986;6.980;2022-12-18T08:50:57;28.15;;;12.73;;
52708;SDS011;38606;52.986;6.980;2022-12-18T08:53:23;29.13;;;12.35;;
52708;SDS011;38606;52.986;6.980;2022-12-18T08:55:50;28.88;;;13.68;;
52708;SDS011;38606;52.986;6.980;2022-12-18T08:58:16;24.33;;;12.50;;
52708;SDS011;38606;52.986;6.980;2022-12-18T09:00:42;29.90;;;12.60;;
52708;SDS011;38606;52.986;6.980;2022-12-18T09:03:12;23.52;;;11.63;;
52708;SDS011;38606;52.986;6.980;2022-12-18T09:05:38;26.13;;;12.10;;
52708;SDS011;38606;52.986;6.980;2022-12-18T09:08:04;21.02;;;11.20;;
52708;SDS011;38606;52.986;6.980;2022-12-18T09:10:30;28.55;;;11.20;;
52708;SDS011;38606;52.986;6.980;2022-12-18T09:12:56;26.67;;;11.45;;
52708;SDS011;38606;52.986;6.980;2022-12-18T09:15:22;26.90;;;11.85;;
52708;SDS011;38606;52.986;6.980;2022-12-18T09:17:47;22.10;;;11.43;;
52708;SDS011;38606;52.986;6.980;2022-12-18T09:20:14;23.15;;;12.18;;
52708;SDS011;38606;52.986;6.980;2022-12-18T09:22:41;23.30;;;11.75;;
52708;SDS011;38606;52.986;6.980;2022-12-18T09:25:07;25.15;;;12.20;;
52708;SDS011;38606;52.986;6.980;2022-12-18T09:27:33;23.38;;;11.20;;
52708;SDS011;38606;52.986;6.980;2022-12-18T09:29:59;21.30;;;10.30;;
52708;SDS011;38606;52.986;6.980;2022-12-18T09:32:25;21.92;;;10.52;;
52708;SDS011;38606;52.986;6.980;2022-12-18T09:34:51;21.15;;;10.55;;
52708;SDS011;38606;52.986;6.980;2022-12-18T09:37:17;24.10;;;11.02;;
52708;SDS011;38606;52.986;6.980;2022-12-18T09:39:43;18.92;;;9.88;;
52708;SDS011;38606;52.986;6.980;2022-12-18T09:42:12;17.15;;;9.68;;
52708;SDS011;38606;52.986;6.980;2022-12-18T09:44:53;18.48;;;8.93;;
52708;SDS011;38606;52.986;6.980;2022-12-18T09:47:20;18.88;;;9.73;;
52708;SDS011;38606;52.986;6.980;2022-12-18T09:49:58;17.92;;;8.52;;
52708;SDS011;38606;52.986;6.980;2022-12-18T09:52:53;16.80;;;7.90;;
52708;SDS011;38606;52.986;6.980;2022-12-18T09:58:13;14.45;;;7.93;;
52708;SDS011;38606;52.986;6.980;2022-12-18T10:00:45;14.88;;;8.30;;
52708;SDS011;38606;52.986;6.980;2022-12-18T10:03:12;12.77;;;7.00;;
52708;SDS011;38606;52.986;6.980;2022-12-18T10:08:46;12.15;;;7.15;;
52708;SDS011;38606;52.986;6.980;2022-12-18T10:11:29;12.10;;;6.88;;
52708;SDS011;38606;52.986;6.980;2022-12-18T10:14:00;14.43;;;7.35;;
52708;SDS011;38606;52.986;6.980;2022-12-18T10:22:10;11.68;;;6.47;;
52708;SDS011;38606;52.986;6.980;2022-12-18T10:27:57;12.73;;;6.65;;
52708;SDS011;38606;52.986;6.980;2022-12-18T10:30:32;13.10;;;7.25;;
52708;SDS011;38606;52.986;6.980;2022-12-18T10:33:01;11.63;;;6.95;;
52708;SDS011;38606;52.986;6.980;2022-12-18T10:35:27;19.58;;;6.63;;
52708;SDS011;38606;52.986;6.980;2022-12-18T10:40:27;10.98;;;5.90;;
52708;SDS011;38606;52.986;6.980;2022-12-18T10:43:03;11.45;;;6.32;;
52708;SDS011;38606;52.986;6.980;2022-12-18T10:45:37;10.90;;;5.95;;
52708;SDS011;38606;52.986;6.980;2022-12-18T10:48:03;11.45;;;6.03;;
52708;SDS011;38606;52.986;6.980;2022-12-18T10:50:30;11.93;;;6.00;;
52708;SDS011;38606;52.986;6.980;2022-12-18T10:52:59;14.70;;;6.95;;
52708;SDS011;38606;52.986;6.980;2022-12-18T10:55:33;12.60;;;6.20;;
52708;SDS011;38606;52.986;6.980;2022-12-18T11:00:46;11.25;;;5.70;;
52708;SDS011;38606;52.986;6.980;2022-12-18T11:03:45;16.58;;;5.40;;
52708;SDS011;38606;52.986;6.980;2022-12-18T11:06:24;11.50;;;6.38;;
52708;SDS011;38606;52.986;6.980;2022-12-18T11:11:24;12.75;;;6.22;;
52708;SDS011;38606;52.986;6.980;2022-12-18T11:13:54;10.60;;;5.60;;
52708;SDS011;38606;52.986;6.980;2022-12-18T11:16:29;10.05;;;5.80;;
52708;SDS011;38606;52.986;6.980;2022-12-18T11:21:58;9.63;;;4.88;;
52708;SDS011;38606;52.986;6.980;2022-12-18T11:24:29;11.23;;;5.97;;
52708;SDS011;38606;52.986;6.980;2022-12-18T11:26:57;10.60;;;5.47;;
52708;SDS011;38606;52.986;6.980;2022-12-18T11:29:28;11.45;;;5.47;;
52708;SDS011;38606;52.986;6.980;2022-12-18T11:32:41;9.95;;;5.70;;
52708;SDS011;38606;52.986;6.980;2022-12-18T11:35:04;10.60;;;5.45;;
52708;SDS011;38606;52.986;6.980;2022-12-18T11:37:30;11.93;;;5.00;;
52708;SDS011;38606;52.986;6.980;2022-12-18T11:40:09;9.07;;;5.20;;
52708;SDS011;38606;52.986;6.980;2022-12-18T11:43:42;9.73;;;5.60;;
52708;SDS011;38606;52.986;6.980;2022-12-18T11:45:43;13.77;;;6.28;;
52708;SDS011;38606;52.986;6.980;2022-12-18T11:48:22;10.52;;;5.22;;
52708;SDS011;38606;52.986;6.980;2022-12-18T11:50:53;10.07;;;5.13;;
52708;SDS011;38606;52.986;6.980;2022-12-18T11:53:23;10.40;;;5.65;;
52708;SDS011;38606;52.986;6.980;2022-12-18T11:55:54;9.93;;;5.20;;
52708;SDS011;38606;52.986;6.980;2022-12-18T12:06:41;10.27;;;4.97;;
52708;SDS011;38606;52.986;6.980;2022-12-18T12:09:27;9.75;;;5.25;;
52708;SDS011;38606;52.986;6.980;2022-12-18T12:19:55;10.35;;;5.63;;
52708;SDS011;38606;52.986;6.980;2022-12-18T12:22:37;11.30;;;5.47;;
52708;SDS011;38606;52.986;6.980;2022-12-18T12:33:29;11.02;;;5.85;;
52708;SDS011;38606;52.986;6.980;2022-12-18T12:36:15;9.70;;;5.68;;
52708;SDS011;38606;52.986;6.980;2022-12-18T12:38:48;11.68;;;5.80;;
52708;SDS011;38606;52.986;6.980;2022-12-18T12:41:23;12.25;;;5.90;;
52708;SDS011;38606;52.986;6.980;2022-12-18T12:44:22;11.23;;;6.13;;
52708;SDS011;38606;52.986;6.980;2022-12-18T12:46:55;8.30;;;5.30;;
52708;SDS011;38606;52.986;6.980;2022-12-18T12:49:25;10.82;;;5.75;;
52708;SDS011;38606;52.986;6.980;2022-12-18T12:51:57;9.40;;;5.88;;
52708;SDS011;38606;52.986;6.980;2022-12-18T12:54:29;10.52;;;5.30;;
52708;SDS011;38606;52.986;6.980;2022-12-18T12:57:01;10.10;;;5.50;;
52708;SDS011;38606;52.986;6.980;2022-12-18T13:10:37;11.65;;;6.43;;
52708;SDS011;38606;52.986;6.980;2022-12-18T13:15:34;13.02;;;6.47;;
52708;SDS011;38606;52.986;6.980;2022-12-18T13:20:41;12.50;;;6.97;;
52708;SDS011;38606;52.986;6.980;2022-12-18T13:34:20;12.27;;;6.70;;
52708;SDS011;38606;52.986;6.980;2022-12-18T13:36:47;12.55;;;7.20;;
52708;SDS011;38606;52.986;6.980;2022-12-18T13:41:42;16.40;;;7.60;;
52708;SDS011;38606;52.986;6.980;2022-12-18T13:46:44;12.27;;;7.40;;
52708;SDS011;38606;52.986;6.980;2022-12-18T13:51:39;11.75;;;7.13;;
52708;SDS011;38606;52.986;6.980;2022-12-18T13:56:44;13.70;;;7.28;;
52708;SDS011;38606;52.986;6.980;2022-12-18T13:59:16;13.95;;;8.00;;
52708;SDS011;38606;52.986;6.980;2022-12-18T14:01:57;17.83;;;7.10;;
52708;SDS011;38606;52.986;6.980;2022-12-18T14:06:52;13.20;;;7.53;;
52708;SDS011;38606;52.986;6.980;2022-12-18T14:09:45;12.70;;;7.25;;
52708;SDS011;38606;52.986;6.980;2022-12-18T14:12:32;16.45;;;7.95;;
52708;SDS011;38606;52.986;6.980;2022-12-18T14:20:27;12.95;;;7.68;;
52708;SDS011;38606;52.986;6.980;2022-12-18T14:22:56;13.23;;;7.82;;
52708;SDS011;38606;52.986;6.980;2022-12-18T14:25:23;12.70;;;7.72;;
52708;SDS011;38606;52.986;6.980;2022-12-18T14:30:36;16.05;;;8.23;;
52708;SDS011;38606;52.986;6.980;2022-12-18T14:38:23;13.45;;;7.93;;
52708;SDS011;38606;52.986;6.980;2022-12-18T14:40:54;14.40;;;7.55;;
52708;SDS011;38606;52.986;6.980;2022-12-18T14:43:25;14.95;;;8.15;;
52708;SDS011;38606;52.986;6.980;2022-12-18T14:45:53;13.82;;;7.60;;
52708;SDS011;38606;52.986;6.980;2022-12-18T14:51:01;14.63;;;8.68;;
52708;SDS011;38606;52.986;6.980;2022-12-18T14:53:43;15.55;;;8.23;;
52708;SDS011;38606;52.986;6.980;2022-12-18T14:56:19;15.57;;;7.93;;
52708;SDS011;38606;52.986;6.980;2022-12-18T14:58:56;13.32;;;7.63;;
52708;SDS011;38606;52.986;6.980;2022-12-18T15:01:25;14.48;;;7.97;;
52708;SDS011;38606;52.986;6.980;2022-12-18T15:04:02;15.68;;;8.27;;
52708;SDS011;38606;52.986;6.980;2022-12-18T15:06:33;14.77;;;8.07;;
52708;SDS011;38606;52.986;6.980;2022-12-18T15:09:23;16.13;;;8.13;;
52708;SDS011;38606;52.986;6.980;2022-12-18T15:11:49;13.07;;;7.63;;
52708;SDS011;38606;52.986;6.980;2022-12-18T15:14:22;14.50;;;8.00;;
52708;SDS011;38606;52.986;6.980;2022-12-18T15:17:14;11.95;;;7.63;;
52708;SDS011;38606;52.986;6.980;2022-12-18T15:19:44;14.25;;;8.10;;
52708;SDS011;38606;52.986;6.980;2022-12-18T15:22:25;13.48;;;7.90;;
52708;SDS011;38606;52.986;6.980;2022-12-18T15:24:53;15.25;;;8.02;;
52708;SDS011;38606;52.986;6.980;2022-12-18T15:27:44;14.93;;;8.52;;
52708;SDS011;38606;52.986;6.980;2022-12-18T15:30:18;15.35;;;8.18;;
52708;SDS011;38606;52.986;6.980;2022-12-18T15:32:46;13.27;;;7.70;;
52708;SDS011;38606;52.986;6.980;2022-12-18T15:35:22;14.02;;;8.32;;
52708;SDS011;38606;52.986;6.980;2022-12-18T15:37:50;14.27;;;8.43;;
52708;SDS011;38606;52.986;6.980;2022-12-18T15:40:18;13.63;;;7.63;;
52708;SDS011;38606;52.986;6.980;2022-12-18T15:42:45;17.80;;;7.95;;
52708;SDS011;38606;52.986;6.980;2022-12-18T15:45:30;14.05;;;8.48;;
52708;SDS011;38606;52.986;6.980;2022-12-18T15:47:56;14.30;;;7.90;;
52708;SDS011;38606;52.986;6.980;2022-12-18T15:50:22;13.48;;;7.38;;
52708;SDS011;38606;52.986;6.980;2022-12-18T15:52:49;13.32;;;7.63;;
52708;SDS011;38606;52.986;6.980;2022-12-18T15:55:20;13.60;;;8.25;;
52708;SDS011;38606;52.986;6.980;2022-12-18T15:58:06;12.80;;;7.20;;
52708;SDS011;38606;52.986;6.980;2022-12-18T16:00:34;13.63;;;7.60;;
52708;SDS011;38606;52.986;6.980;2022-12-18T16:03:01;13.13;;;7.90;;
52708;SDS011;38606;52.986;6.980;2022-12-18T16:05:28;13.18;;;7.25;;
52708;SDS011;38606;52.986;6.980;2022-12-18T16:07:54;15.13;;;7.78;;
52708;SDS011;38606;52.986;6.980;2022-12-18T16:10:20;13.90;;;8.00;;
52708;SDS011;38606;52.986;6.980;2022-12-18T16:12:45;14.35;;;7.78;;
52708;SDS011;38606;52.986;6.980;2022-12-18T16:15:12;14.07;;;8.10;;
52708;SDS011;38606;52.986;6.980;2022-12-18T16:17:41;13.50;;;7.72;;
52708;SDS011;38606;52.986;6.980;2022-12-18T16:20:18;14.55;;;8.57;;
52708;SDS011;38606;52.986;6.980;2022-12-18T16:22:46;14.43;;;7.07;;
52708;SDS011;38606;52.986;6.980;2022-12-18T16:25:17;10.45;;;7.03;;
52708;SDS011;38606;52.986;6.980;2022-12-18T16:27:48;14.38;;;7.35;;
52708;SDS011;38606;52.986;6.980;2022-12-18T16:30:19;11.13;;;6.85;;
52708;SDS011;38606;52.986;6.980;2022-12-18T16:32:55;13.20;;;7.13;;
52708;SDS011;38606;52.986;6.980;2022-12-18T16:35:25;16.25;;;7.90;;
52708;SDS011;38606;52.986;6.980;2022-12-18T16:37:51;16.20;;;6.75;;
52708;SDS011;38606;52.986;6.980;2022-12-18T16:40:18;14.65;;;7.20;;
52708;SDS011;38606;52.986;6.980;2022-12-18T16:42:44;13.70;;;6.75;;
52708;SDS011;38606;52.986;6.980;2022-12-18T16:45:12;14.48;;;7.32;;
52708;SDS011;38606;52.986;6.980;2022-12-18T16:47:40;13.60;;;7.03;;
52708;SDS011;38606;52.986;6.980;2022-12-18T16:50:06;13.82;;;6.95;;
52708;SDS011;38606;52.986;6.980;2022-12-18T16:52:32;13.45;;;6.85;;